sensor_id;sensor_type;location;lat;lon;timestamp;P1;durP1;ratioP1;P2;durP2;ratioP2
43519;SDS011;46848;51.980;5.918;2022-08-27T00:00:15;4.40;;;1.70;;
43519;SDS011;46848;51.980;5.918;2022-08-27T00:02:42;4.57;;;1.70;;
43519;SDS011;46848;51.980;5.918;2022-08-27T00:05:09;6.53;;;2.20;;
43519;SDS011;46848;51.980;5.918;2022-08-27T00:07:36;4.43;;;1.35;;
43519;SDS011;46848;51.980;5.918;2022-08-27T00:10:02;7.60;;;1.88;;
43519;SDS011;46848;51.980;5.918;2022-08-27T00:12:31;4.57;;;2.20;;
43519;SDS011;46848;51.980;5.918;2022-08-27T00:14:58;5.80;;;3.75;;
43519;SDS011;46848;51.980;5.918;2022-08-27T00:17:24;7.55;;;4.03;;
43519;SDS011;46848;51.980;5.918;2022-08-27T00:19:50;6.43;;;4.18;;
43519;SDS011;46848;51.980;5.918;2022-08-27T00:22:15;7.65;;;3.67;;
43519;SDS011;46848;51.980;5.918;2022-08-27T00:24:41;5.78;;;3.03;;
43519;SDS011;46848;51.980;5.918;2022-08-27T00:27:07;10.60;;;3.22;;
43519;SDS011;46848;51.980;5.918;2022-08-27T00:29:32;6.72;;;3.00;;
43519;SDS011;46848;51.980;5.918;2022-08-27T00:31:58;7.20;;;2.47;;
43519;SDS011;46848;51.980;5.918;2022-08-27T00:34:24;4.88;;;2.30;;
43519;SDS011;46848;51.980;5.918;2022-08-27T00:36:49;7.30;;;3.05;;
43519;SDS011;46848;51.980;5.918;2022-08-27T00:39:15;8.23;;;4.82;;
43519;SDS011;46848;51.980;5.918;2022-08-27T00:41:41;10.60;;;5.63;;
43519;SDS011;46848;51.980;5.918;2022-08-27T00:44:10;8.93;;;5.05;;
43519;SDS011;46848;51.980;5.918;2022-08-27T00:46:50;5.90;;;3.58;;
43519;SDS011;46848;51.980;5.918;2022-08-27T00:51:52;5.85;;;3.55;;
43519;SDS011;46848;51.980;5.918;2022-08-27T00:54:27;16.25;;;11.10;;
43519;SDS011;46848;51.980;5.918;2022-08-27T00:56:53;12.10;;;6.55;;
43519;SDS011;46848;51.980;5.918;2022-08-27T00:59:22;9.93;;;4.63;;
43519;SDS011;46848;51.980;5.918;2022-08-27T01:01:50;6.72;;;3.47;;
43519;SDS011;46848;51.980;5.918;2022-08-27T01:04:34;6.60;;;2.88;;
43519;SDS011;46848;51.980;5.918;2022-08-27T01:07:02;5.07;;;2.05;;
43519;SDS011;46848;51.980;5.918;2022-08-27T01:09:29;6.03;;;2.95;;
43519;SDS011;46848;51.980;5.918;2022-08-27T01:11:55;7.10;;;2.97;;
43519;SDS011;46848;51.980;5.918;2022-08-27T01:14:22;7.78;;;5.00;;
43519;SDS011;46848;51.980;5.918;2022-08-27T01:16:49;8.27;;;4.00;;
43519;SDS011;46848;51.980;5.918;2022-08-27T01:19:29;6.45;;;3.03;;
43519;SDS011;46848;51.980;5.918;2022-08-27T01:22:13;5.90;;;2.40;;
43519;SDS011;46848;51.980;5.918;2022-08-27T01:24:47;5.00;;;1.90;;
43519;SDS011;46848;51.980;5.918;2022-08-27T01:27:15;4.23;;;1.77;;
43519;SDS011;46848;51.980;5.918;2022-08-27T01:29:44;5.57;;;1.85;;
43519;SDS011;46848;51.980;5.918;2022-08-27T01:32:18;3.05;;;1.60;;
43519;SDS011;46848;51.980;5.918;2022-08-27T01:34:47;3.90;;;1.25;;
43519;SDS011;46848;51.980;5.918;2022-08-27T01:37:14;3.05;;;1.30;;
43519;SDS011;46848;51.980;5.918;2022-08-27T01:39:41;3.80;;;1.48;;
43519;SDS011;46848;51.980;5.918;2022-08-27T01:42:17;4.95;;;1.63;;
43519;SDS011;46848;51.980;5.918;2022-08-27T01:47:15;3.38;;;1.40;;
43519;SDS011;46848;51.980;5.918;2022-08-27T01:49:42;5.88;;;1.55;;
43519;SDS011;46848;51.980;5.918;2022-08-27T01:52:08;3.40;;;1.60;;
43519;SDS011;46848;51.980;5.918;2022-08-27T01:54:34;4.95;;;1.70;;
43519;SDS011;46848;51.980;5.918;2022-08-27T01:57:00;3.00;;;1.10;;
43519;SDS011;46848;51.980;5.918;2022-08-27T01:59:25;3.58;;;1.67;;
43519;SDS011;46848;51.980;5.918;2022-08-27T02:01:52;12.88;;;7.82;;
43519;SDS011;46848;51.980;5.918;2022-08-27T02:04:19;15.32;;;10.18;;
43519;SDS011;46848;51.980;5.918;2022-08-27T02:06:45;9.43;;;6.10;;
43519;SDS011;46848;51.980;5.918;2022-08-27T02:09:11;10.27;;;4.63;;
43519;SDS011;46848;51.980;5.918;2022-08-27T02:11:37;7.53;;;3.30;;
43519;SDS011;46848;51.980;5.918;2022-08-27T02:14:02;5.80;;;2.40;;
43519;SDS011;46848;51.980;5.918;2022-08-27T02:16:28;7.53;;;2.67;;
43519;SDS011;46848;51.980;5.918;2022-08-27T02:18:56;6.65;;;2.40;;
43519;SDS011;46848;51.980;5.918;2022-08-27T02:21:23;5.05;;;2.10;;
43519;SDS011;46848;51.980;5.918;2022-08-27T02:23:49;4.72;;;1.50;;
43519;SDS011;46848;51.980;5.918;2022-08-27T02:26:14;4.43;;;1.65;;
43519;SDS011;46848;51.980;5.918;2022-08-27T02:28:40;4.82;;;2.08;;
43519;SDS011;46848;51.980;5.918;2022-08-27T02:31:06;11.18;;;8.18;;
43519;SDS011;46848;51.980;5.918;2022-08-27T02:33:32;12.02;;;7.63;;
43519;SDS011;46848;51.980;5.918;2022-08-27T02:35:57;10.30;;;5.63;;
43519;SDS011;46848;51.980;5.918;2022-08-27T02:38:24;7.28;;;3.90;;
43519;SDS011;46848;51.980;5.918;2022-08-27T02:40:49;6.60;;;3.42;;
43519;SDS011;46848;51.980;5.918;2022-08-27T02:43:15;5.90;;;2.83;;
43519;SDS011;46848;51.980;5.918;2022-08-27T02:45:41;6.57;;;2.70;;
43519;SDS011;46848;51.980;5.918;2022-08-27T02:48:06;3.50;;;2.00;;
43519;SDS011;46848;51.980;5.918;2022-08-27T02:50:32;6.93;;;2.08;;
43519;SDS011;46848;51.980;5.918;2022-08-27T02:52:59;3.95;;;1.55;;
43519;SDS011;46848;51.980;5.918;2022-08-27T02:55:26;4.18;;;1.50;;
43519;SDS011;46848;51.980;5.918;2022-08-27T02:57:52;3.08;;;1.20;;
43519;SDS011;46848;51.980;5.918;2022-08-27T03:00:18;4.45;;;1.55;;
43519;SDS011;46848;51.980;5.918;2022-08-27T03:02:46;5.18;;;1.88;;
43519;SDS011;46848;51.980;5.918;2022-08-27T03:05:13;5.47;;;1.50;;
43519;SDS011;46848;51.980;5.918;2022-08-27T03:07:39;4.88;;;1.60;;
43519;SDS011;46848;51.980;5.918;2022-08-27T03:10:06;4.22;;;1.40;;
43519;SDS011;46848;51.980;5.918;2022-08-27T03:12:33;4.07;;;1.60;;
43519;SDS011;46848;51.980;5.918;2022-08-27T03:15:00;4.18;;;1.40;;
43519;SDS011;46848;51.980;5.918;2022-08-27T03:17:27;4.82;;;1.70;;
43519;SDS011;46848;51.980;5.918;2022-08-27T03:20:12;4.10;;;1.48;;
43519;SDS011;46848;51.980;5.918;2022-08-27T03:22:38;8.05;;;4.35;;
43519;SDS011;46848;51.980;5.918;2022-08-27T03:25:04;10.88;;;6.35;;
43519;SDS011;46848;51.980;5.918;2022-08-27T03:27:30;8.68;;;4.88;;
43519;SDS011;46848;51.980;5.918;2022-08-27T03:29:56;7.22;;;3.97;;
43519;SDS011;46848;51.980;5.918;2022-08-27T03:32:22;5.00;;;3.20;;
43519;SDS011;46848;51.980;5.918;2022-08-27T03:34:48;5.75;;;2.58;;
43519;SDS011;46848;51.980;5.918;2022-08-27T03:37:14;6.57;;;2.75;;
43519;SDS011;46848;51.980;5.918;2022-08-27T03:39:39;4.63;;;2.17;;
43519;SDS011;46848;51.980;5.918;2022-08-27T03:42:05;4.18;;;2.08;;
43519;SDS011;46848;51.980;5.918;2022-08-27T03:44:31;6.38;;;3.20;;
43519;SDS011;46848;51.980;5.918;2022-08-27T03:46:57;6.20;;;3.85;;
43519;SDS011;46848;51.980;5.918;2022-08-27T03:49:24;8.30;;;4.00;;
43519;SDS011;46848;51.980;5.918;2022-08-27T03:51:50;6.05;;;3.00;;
43519;SDS011;46848;51.980;5.918;2022-08-27T03:54:17;5.72;;;2.72;;
43519;SDS011;46848;51.980;5.918;2022-08-27T03:56:42;6.78;;;3.70;;
43519;SDS011;46848;51.980;5.918;2022-08-27T03:59:08;8.38;;;5.20;;
43519;SDS011;46848;51.980;5.918;2022-08-27T04:01:34;5.18;;;3.08;;
43519;SDS011;46848;51.980;5.918;2022-08-27T04:04:00;6.00;;;2.72;;
43519;SDS011;46848;51.980;5.918;2022-08-27T04:06:26;6.90;;;3.03;;
43519;SDS011;46848;51.980;5.918;2022-08-27T04:08:52;8.45;;;2.97;;
43519;SDS011;46848;51.980;5.918;2022-08-27T04:11:17;5.95;;;2.72;;
43519;SDS011;46848;51.980;5.918;2022-08-27T04:13:43;6.68;;;2.80;;
43519;SDS011;46848;51.980;5.918;2022-08-27T04:16:09;5.20;;;2.33;;
43519;SDS011;46848;51.980;5.918;2022-08-27T04:18:34;6.55;;;2.20;;
43519;SDS011;46848;51.980;5.918;2022-08-27T04:21:05;5.53;;;3.30;;
43519;SDS011;46848;51.980;5.918;2022-08-27T04:23:32;10.35;;;6.70;;
43519;SDS011;46848;51.980;5.918;2022-08-27T04:25:58;8.38;;;4.40;;
43519;SDS011;46848;51.980;5.918;2022-08-27T04:28:24;7.72;;;3.50;;
43519;SDS011;46848;51.980;5.918;2022-08-27T04:30:50;6.22;;;3.00;;
43519;SDS011;46848;51.980;5.918;2022-08-27T04:33:16;6.30;;;2.58;;
43519;SDS011;46848;51.980;5.918;2022-08-27T04:35:41;6.40;;;2.75;;
43519;SDS011;46848;51.980;5.918;2022-08-27T04:38:07;8.38;;;5.57;;
43519;SDS011;46848;51.980;5.918;2022-08-27T04:40:34;8.10;;;4.25;;
43519;SDS011;46848;51.980;5.918;2022-08-27T04:43:19;7.25;;;3.53;;
43519;SDS011;46848;51.980;5.918;2022-08-27T04:45:45;7.82;;;2.90;;
43519;SDS011;46848;51.980;5.918;2022-08-27T04:48:13;6.68;;;2.70;;
43519;SDS011;46848;51.980;5.918;2022-08-27T04:50:40;4.95;;;2.28;;
43519;SDS011;46848;51.980;5.918;2022-08-27T04:53:11;5.95;;;2.33;;
43519;SDS011;46848;51.980;5.918;2022-08-27T04:55:45;7.30;;;4.07;;
43519;SDS011;46848;51.980;5.918;2022-08-27T04:58:13;6.60;;;3.72;;
43519;SDS011;46848;51.980;5.918;2022-08-27T05:00:42;5.47;;;3.00;;
43519;SDS011;46848;51.980;5.918;2022-08-27T05:03:09;5.90;;;2.72;;
43519;SDS011;46848;51.980;5.918;2022-08-27T05:05:35;4.65;;;2.35;;
43519;SDS011;46848;51.980;5.918;2022-08-27T05:08:02;5.60;;;2.55;;
43519;SDS011;46848;51.980;5.918;2022-08-27T05:10:27;5.85;;;2.53;;
43519;SDS011;46848;51.980;5.918;2022-08-27T05:12:53;5.90;;;2.28;;
43519;SDS011;46848;51.980;5.918;2022-08-27T05:15:19;6.68;;;3.22;;
43519;SDS011;46848;51.980;5.918;2022-08-27T05:17:44;7.10;;;3.65;;
43519;SDS011;46848;51.980;5.918;2022-08-27T05:20:11;5.45;;;2.72;;
43519;SDS011;46848;51.980;5.918;2022-08-27T05:22:36;4.63;;;2.20;;
43519;SDS011;46848;51.980;5.918;2022-08-27T05:25:03;5.18;;;2.38;;
43519;SDS011;46848;51.980;5.918;2022-08-27T05:27:30;6.15;;;2.53;;
43519;SDS011;46848;51.980;5.918;2022-08-27T05:29:56;5.30;;;2.30;;
43519;SDS011;46848;51.980;5.918;2022-08-27T05:32:21;4.97;;;2.10;;
43519;SDS011;46848;51.980;5.918;2022-08-27T05:34:47;5.55;;;2.20;;
43519;SDS011;46848;51.980;5.918;2022-08-27T05:37:13;4.93;;;1.92;;
43519;SDS011;46848;51.980;5.918;2022-08-27T05:39:39;5.70;;;2.25;;
43519;SDS011;46848;51.980;5.918;2022-08-27T05:42:04;5.57;;;2.50;;
43519;SDS011;46848;51.980;5.918;2022-08-27T05:44:31;4.97;;;3.05;;
43519;SDS011;46848;51.980;5.918;2022-08-27T05:46:56;6.35;;;3.50;;
43519;SDS011;46848;51.980;5.918;2022-08-27T05:49:22;6.25;;;2.97;;
43519;SDS011;46848;51.980;5.918;2022-08-27T05:51:48;8.55;;;5.30;;
43519;SDS011;46848;51.980;5.918;2022-08-27T05:54:13;7.88;;;5.07;;
43519;SDS011;46848;51.980;5.918;2022-08-27T05:56:43;8.27;;;4.35;;
43519;SDS011;46848;51.980;5.918;2022-08-27T05:59:09;6.47;;;2.90;;
43519;SDS011;46848;51.980;5.918;2022-08-27T06:01:54;5.03;;;2.88;;
43519;SDS011;46848;51.980;5.918;2022-08-27T06:04:21;6.93;;;2.80;;
43519;SDS011;46848;51.980;5.918;2022-08-27T06:06:48;5.03;;;2.35;;
43519;SDS011;46848;51.980;5.918;2022-08-27T06:09:17;5.00;;;2.05;;
43519;SDS011;46848;51.980;5.918;2022-08-27T06:11:45;3.47;;;1.95;;
43519;SDS011;46848;51.980;5.918;2022-08-27T06:14:11;4.35;;;1.90;;
43519;SDS011;46848;51.980;5.918;2022-08-27T06:16:37;5.65;;;1.95;;
43519;SDS011;46848;51.980;5.918;2022-08-27T06:19:03;5.53;;;2.08;;
43519;SDS011;46848;51.980;5.918;2022-08-27T06:21:30;5.47;;;1.83;;
43519;SDS011;46848;51.980;5.918;2022-08-27T06:23:56;5.25;;;1.85;;
43519;SDS011;46848;51.980;5.918;2022-08-27T06:26:22;5.03;;;2.10;;
43519;SDS011;46848;51.980;5.918;2022-08-27T06:28:49;5.75;;;1.90;;
43519;SDS011;46848;51.980;5.918;2022-08-27T06:33:47;4.13;;;1.52;;
43519;SDS011;46848;51.980;5.918;2022-08-27T06:36:15;4.63;;;1.70;;
43519;SDS011;46848;51.980;5.918;2022-08-27T06:38:42;5.10;;;2.63;;
43519;SDS011;46848;51.980;5.918;2022-08-27T06:41:09;6.57;;;3.60;;
43519;SDS011;46848;51.980;5.918;2022-08-27T06:43:38;4.82;;;2.35;;
43519;SDS011;46848;51.980;5.918;2022-08-27T06:46:05;4.22;;;2.47;;
43519;SDS011;46848;51.980;5.918;2022-08-27T06:48:34;4.38;;;1.85;;
43519;SDS011;46848;51.980;5.918;2022-08-27T06:51:05;3.08;;;1.58;;
43519;SDS011;46848;51.980;5.918;2022-08-27T06:53:36;4.63;;;1.77;;
43519;SDS011;46848;51.980;5.918;2022-08-27T06:56:02;4.85;;;1.77;;
43519;SDS011;46848;51.980;5.918;2022-08-27T06:58:29;5.15;;;1.80;;
43519;SDS011;46848;51.980;5.918;2022-08-27T07:00:54;4.13;;;1.80;;
43519;SDS011;46848;51.980;5.918;2022-08-27T07:03:20;3.97;;;1.25;;
43519;SDS011;46848;51.980;5.918;2022-08-27T07:05:46;4.65;;;1.42;;
43519;SDS011;46848;51.980;5.918;2022-08-27T07:08:11;3.75;;;1.52;;
43519;SDS011;46848;51.980;5.918;2022-08-27T07:10:37;3.75;;;1.52;;
43519;SDS011;46848;51.980;5.918;2022-08-27T07:13:03;4.75;;;1.48;;
43519;SDS011;46848;51.980;5.918;2022-08-27T07:15:29;3.78;;;1.38;;
43519;SDS011;46848;51.980;5.918;2022-08-27T07:17:55;6.05;;;1.15;;
43519;SDS011;46848;51.980;5.918;2022-08-27T07:20:21;3.33;;;1.10;;
43519;SDS011;46848;51.980;5.918;2022-08-27T07:22:47;5.07;;;1.33;;
43519;SDS011;46848;51.980;5.918;2022-08-27T07:25:14;3.30;;;1.05;;
43519;SDS011;46848;51.980;5.918;2022-08-27T07:27:44;5.55;;;1.30;;
43519;SDS011;46848;51.980;5.918;2022-08-27T07:30:11;2.25;;;0.93;;
43519;SDS011;46848;51.980;5.918;2022-08-27T07:32:39;4.63;;;2.30;;
43519;SDS011;46848;51.980;5.918;2022-08-27T07:35:09;4.15;;;1.05;;
43519;SDS011;46848;51.980;5.918;2022-08-27T07:37:36;3.45;;;1.20;;
43519;SDS011;46848;51.980;5.918;2022-08-27T07:40:03;4.47;;;1.20;;
43519;SDS011;46848;51.980;5.918;2022-08-27T07:42:30;6.13;;;1.20;;
43519;SDS011;46848;51.980;5.918;2022-08-27T07:45:15;6.85;;;1.52;;
43519;SDS011;46848;51.980;5.918;2022-08-27T07:47:40;4.35;;;1.60;;
43519;SDS011;46848;51.980;5.918;2022-08-27T07:50:06;8.15;;;1.30;;
43519;SDS011;46848;51.980;5.918;2022-08-27T07:52:32;6.95;;;1.38;;
43519;SDS011;46848;51.980;5.918;2022-08-27T07:54:58;2.67;;;0.93;;
43519;SDS011;46848;51.980;5.918;2022-08-27T07:57:24;2.65;;;0.82;;
43519;SDS011;46848;51.980;5.918;2022-08-27T07:59:49;3.05;;;1.00;;
43519;SDS011;46848;51.980;5.918;2022-08-27T08:02:17;3.63;;;0.90;;
43519;SDS011;46848;51.980;5.918;2022-08-27T08:04:43;2.42;;;1.00;;
43519;SDS011;46848;51.980;5.918;2022-08-27T08:07:09;3.90;;;0.98;;
43519;SDS011;46848;51.980;5.918;2022-08-27T08:09:35;3.40;;;0.90;;
43519;SDS011;46848;51.980;5.918;2022-08-27T08:12:01;2.67;;;0.90;;
43519;SDS011;46848;51.980;5.918;2022-08-27T08:14:28;5.20;;;0.90;;
43519;SDS011;46848;51.980;5.918;2022-08-27T08:16:59;3.95;;;1.20;;
43519;SDS011;46848;51.980;5.918;2022-08-27T08:19:26;3.42;;;0.82;;
43519;SDS011;46848;51.980;5.918;2022-08-27T08:21:52;4.25;;;1.17;;
43519;SDS011;46848;51.980;5.918;2022-08-27T08:24:18;2.38;;;1.10;;
43519;SDS011;46848;51.980;5.918;2022-08-27T08:26:44;2.92;;;0.82;;
43519;SDS011;46848;51.980;5.918;2022-08-27T08:29:10;2.50;;;1.20;;
43519;SDS011;46848;51.980;5.918;2022-08-27T08:31:36;3.72;;;1.30;;
43519;SDS011;46848;51.980;5.918;2022-08-27T08:34:02;5.75;;;1.70;;
43519;SDS011;46848;51.980;5.918;2022-08-27T08:36:27;4.60;;;2.20;;
43519;SDS011;46848;51.980;5.918;2022-08-27T08:38:53;3.70;;;1.55;;
43519;SDS011;46848;51.980;5.918;2022-08-27T08:44:07;4.95;;;1.45;;
43519;SDS011;46848;51.980;5.918;2022-08-27T08:50:29;4.00;;;1.15;;
43519;SDS011;46848;51.980;5.918;2022-08-27T08:58:13;4.10;;;1.10;;
43519;SDS011;46848;51.980;5.918;2022-08-27T09:00:59;2.60;;;1.00;;
43519;SDS011;46848;51.980;5.918;2022-08-27T09:03:28;4.68;;;1.10;;
43519;SDS011;46848;51.980;5.918;2022-08-27T09:05:59;4.57;;;1.27;;
43519;SDS011;46848;51.980;5.918;2022-08-27T09:08:39;3.40;;;1.00;;
43519;SDS011;46848;51.980;5.918;2022-08-27T09:13:54;6.57;;;0.98;;
43519;SDS011;46848;51.980;5.918;2022-08-27T09:16:26;3.17;;;1.10;;
43519;SDS011;46848;51.980;5.918;2022-08-27T09:18:53;3.28;;;1.13;;
43519;SDS011;46848;51.980;5.918;2022-08-27T09:26:46;2.83;;;1.00;;
43519;SDS011;46848;51.980;5.918;2022-08-27T09:29:13;2.05;;;0.90;;
43519;SDS011;46848;51.980;5.918;2022-08-27T09:31:41;3.83;;;1.00;;
43519;SDS011;46848;51.980;5.918;2022-08-27T09:34:09;1.80;;;0.80;;
43519;SDS011;46848;51.980;5.918;2022-08-27T09:36:47;2.67;;;0.90;;
43519;SDS011;46848;51.980;5.918;2022-08-27T09:39:18;3.42;;;1.00;;
43519;SDS011;46848;51.980;5.918;2022-08-27T09:41:45;3.70;;;0.98;;
43519;SDS011;46848;51.980;5.918;2022-08-27T09:44:13;2.75;;;0.90;;
43519;SDS011;46848;51.980;5.918;2022-08-27T09:46:55;2.25;;;0.63;;
43519;SDS011;46848;51.980;5.918;2022-08-27T09:49:23;2.22;;;0.80;;
43519;SDS011;46848;51.980;5.918;2022-08-27T09:51:51;2.72;;;0.80;;
43519;SDS011;46848;51.980;5.918;2022-08-27T09:57:05;3.97;;;1.23;;
43519;SDS011;46848;51.980;5.918;2022-08-27T09:59:36;5.93;;;1.15;;
43519;SDS011;46848;51.980;5.918;2022-08-27T10:02:12;4.72;;;0.93;;
43519;SDS011;46848;51.980;5.918;2022-08-27T10:04:44;3.67;;;1.00;;
43519;SDS011;46848;51.980;5.918;2022-08-27T10:09:42;3.10;;;0.88;;
43519;SDS011;46848;51.980;5.918;2022-08-27T10:12:34;3.05;;;0.77;;
43519;SDS011;46848;51.980;5.918;2022-08-27T10:15:28;4.18;;;1.38;;
43519;SDS011;46848;51.980;5.918;2022-08-27T10:18:15;4.05;;;1.20;;
43519;SDS011;46848;51.980;5.918;2022-08-27T10:26:21;4.85;;;1.13;;
43519;SDS011;46848;51.980;5.918;2022-08-27T10:29:04;3.92;;;1.45;;
43519;SDS011;46848;51.980;5.918;2022-08-27T10:31:40;5.15;;;1.60;;
43519;SDS011;46848;51.980;5.918;2022-08-27T10:42:25;4.13;;;1.00;;
43519;SDS011;46848;51.980;5.918;2022-08-27T10:47:51;3.03;;;0.95;;
43519;SDS011;46848;51.980;5.918;2022-08-27T10:50:26;3.75;;;1.33;;
43519;SDS011;46848;51.980;5.918;2022-08-27T10:53:08;2.70;;;1.15;;
43519;SDS011;46848;51.980;5.918;2022-08-27T10:55:42;4.43;;;1.42;;
43519;SDS011;46848;51.980;5.918;2022-08-27T10:58:21;3.00;;;0.90;;
43519;SDS011;46848;51.980;5.918;2022-08-27T11:01:00;2.33;;;0.75;;
43519;SDS011;46848;51.980;5.918;2022-08-27T11:06:05;2.13;;;0.88;;
43519;SDS011;46848;51.980;5.918;2022-08-27T11:08:45;3.95;;;0.93;;
43519;SDS011;46848;51.980;5.918;2022-08-27T11:11:22;3.47;;;1.00;;
43519;SDS011;46848;51.980;5.918;2022-08-27T11:13:55;3.83;;;1.00;;
43519;SDS011;46848;51.980;5.918;2022-08-27T11:16:25;6.47;;;1.15;;
43519;SDS011;46848;51.980;5.918;2022-08-27T11:22:18;2.33;;;0.82;;
43519;SDS011;46848;51.980;5.918;2022-08-27T11:24:58;2.92;;;1.10;;
43519;SDS011;46848;51.980;5.918;2022-08-27T11:27:34;3.80;;;1.20;;
43519;SDS011;46848;51.980;5.918;2022-08-27T11:30:04;2.78;;;1.10;;
43519;SDS011;46848;51.980;5.918;2022-08-27T11:43:56;2.90;;;0.73;;
43519;SDS011;46848;51.980;5.918;2022-08-27T11:46:25;2.80;;;0.90;;
43519;SDS011;46848;51.980;5.918;2022-08-27T11:48:56;3.85;;;0.82;;
43519;SDS011;46848;51.980;5.918;2022-08-27T11:53:59;4.15;;;0.70;;
43519;SDS011;46848;51.980;5.918;2022-08-27T12:01:34;5.55;;;1.00;;
43519;SDS011;46848;51.980;5.918;2022-08-27T12:06:39;3.08;;;1.23;;
43519;SDS011;46848;51.980;5.918;2022-08-27T12:09:20;5.20;;;1.33;;
43519;SDS011;46848;51.980;5.918;2022-08-27T12:11:53;5.15;;;1.30;;
43519;SDS011;46848;51.980;5.918;2022-08-27T12:25:38;4.93;;;1.30;;
43519;SDS011;46848;51.980;5.918;2022-08-27T12:28:06;4.45;;;1.00;;
43519;SDS011;46848;51.980;5.918;2022-08-27T12:33:18;3.97;;;1.13;;
43519;SDS011;46848;51.980;5.918;2022-08-27T12:36:05;3.90;;;1.20;;
43519;SDS011;46848;51.980;5.918;2022-08-27T12:38:47;4.25;;;1.00;;
43519;SDS011;46848;51.980;5.918;2022-08-27T12:41:26;4.78;;;1.00;;
43519;SDS011;46848;51.980;5.918;2022-08-27T12:46:43;4.38;;;1.00;;
43519;SDS011;46848;51.980;5.918;2022-08-27T12:49:11;3.92;;;1.10;;
43519;SDS011;46848;51.980;5.918;2022-08-27T12:51:45;3.85;;;1.23;;
43519;SDS011;46848;51.980;5.918;2022-08-27T12:54:35;5.45;;;2.22;;
43519;SDS011;46848;51.980;5.918;2022-08-27T12:57:20;3.60;;;1.30;;
43519;SDS011;46848;51.980;5.918;2022-08-27T13:05:35;6.32;;;1.05;;
43519;SDS011;46848;51.980;5.918;2022-08-27T13:08:22;5.43;;;0.85;;
43519;SDS011;46848;51.980;5.918;2022-08-27T13:10:53;2.97;;;1.25;;
43519;SDS011;46848;51.980;5.918;2022-08-27T13:13:20;3.67;;;0.98;;
43519;SDS011;46848;51.980;5.918;2022-08-27T13:15:53;3.95;;;1.30;;
43519;SDS011;46848;51.980;5.918;2022-08-27T13:18:21;4.55;;;1.20;;
43519;SDS011;46848;51.980;5.918;2022-08-27T13:20:48;5.80;;;1.00;;
43519;SDS011;46848;51.980;5.918;2022-08-27T13:23:16;5.47;;;1.10;;
43519;SDS011;46848;51.980;5.918;2022-08-27T13:28:39;4.20;;;1.60;;
43519;SDS011;46848;51.980;5.918;2022-08-27T13:31:06;2.70;;;1.02;;
43519;SDS011;46848;51.980;5.918;2022-08-27T13:33:35;4.07;;;1.48;;
43519;SDS011;46848;51.980;5.918;2022-08-27T13:36:03;4.53;;;1.02;;
43519;SDS011;46848;51.980;5.918;2022-08-27T13:38:31;4.88;;;1.30;;
43519;SDS011;46848;51.980;5.918;2022-08-27T13:41:06;4.90;;;1.20;;
43519;SDS011;46848;51.980;5.918;2022-08-27T13:43:50;4.57;;;1.35;;
43519;SDS011;46848;51.980;5.918;2022-08-27T13:46:19;5.22;;;1.20;;
43519;SDS011;46848;51.980;5.918;2022-08-27T13:48:48;4.80;;;0.88;;
43519;SDS011;46848;51.980;5.918;2022-08-27T13:51:22;3.17;;;0.80;;
43519;SDS011;46848;51.980;5.918;2022-08-27T13:53:51;2.92;;;1.20;;
43519;SDS011;46848;51.980;5.918;2022-08-27T13:56:38;3.00;;;1.23;;
43519;SDS011;46848;51.980;5.918;2022-08-27T13:59:13;5.57;;;1.10;;
43519;SDS011;46848;51.980;5.918;2022-08-27T14:04:43;3.90;;;0.85;;
43519;SDS011;46848;51.980;5.918;2022-08-27T14:07:28;9.32;;;4.95;;
43519;SDS011;46848;51.980;5.918;2022-08-27T14:10:00;5.53;;;1.95;;
43519;SDS011;46848;51.980;5.918;2022-08-27T14:17:55;3.75;;;1.15;;
43519;SDS011;46848;51.980;5.918;2022-08-27T14:20:21;4.68;;;1.13;;
43519;SDS011;46848;51.980;5.918;2022-08-27T14:22:48;3.28;;;1.05;;
43519;SDS011;46848;51.980;5.918;2022-08-27T14:25:15;6.57;;;1.77;;
43519;SDS011;46848;51.980;5.918;2022-08-27T14:27:42;4.00;;;1.15;;
43519;SDS011;46848;51.980;5.918;2022-08-27T14:30:13;1.95;;;1.00;;
43519;SDS011;46848;51.980;5.918;2022-08-27T14:32:40;3.92;;;0.90;;
43519;SDS011;46848;51.980;5.918;2022-08-27T14:35:06;5.10;;;1.40;;
43519;SDS011;46848;51.980;5.918;2022-08-27T14:37:34;5.05;;;1.10;;
43519;SDS011;46848;51.980;5.918;2022-08-27T14:40:04;3.45;;;0.88;;
43519;SDS011;46848;51.980;5.918;2022-08-27T14:42:30;3.22;;;1.13;;
43519;SDS011;46848;51.980;5.918;2022-08-27T14:44:56;4.15;;;1.33;;
43519;SDS011;46848;51.980;5.918;2022-08-27T14:47:22;4.10;;;1.30;;
43519;SDS011;46848;51.980;5.918;2022-08-27T14:49:47;4.25;;;1.25;;
43519;SDS011;46848;51.980;5.918;2022-08-27T14:52:13;5.13;;;1.38;;
43519;SDS011;46848;51.980;5.918;2022-08-27T14:54:39;4.03;;;1.48;;
43519;SDS011;46848;51.980;5.918;2022-08-27T14:57:07;5.72;;;1.08;;
43519;SDS011;46848;51.980;5.918;2022-08-27T14:59:34;4.20;;;1.20;;
43519;SDS011;46848;51.980;5.918;2022-08-27T15:02:01;4.10;;;1.10;;
43519;SDS011;46848;51.980;5.918;2022-08-27T15:04:29;3.75;;;1.08;;
43519;SDS011;46848;51.980;5.918;2022-08-27T15:06:56;4.28;;;0.70;;
43519;SDS011;46848;51.980;5.918;2022-08-27T15:09:22;3.25;;;1.00;;
43519;SDS011;46848;51.980;5.918;2022-08-27T15:11:48;3.42;;;1.17;;
43519;SDS011;46848;51.980;5.918;2022-08-27T15:14:16;4.82;;;1.02;;
43519;SDS011;46848;51.980;5.918;2022-08-27T15:16:44;5.40;;;1.23;;
43519;SDS011;46848;51.980;5.918;2022-08-27T15:19:10;3.35;;;1.02;;
43519;SDS011;46848;51.980;5.918;2022-08-27T15:21:39;3.10;;;1.05;;
43519;SDS011;46848;51.980;5.918;2022-08-27T15:24:16;4.50;;;1.45;;
43519;SDS011;46848;51.980;5.918;2022-08-27T15:26:46;5.03;;;1.50;;
43519;SDS011;46848;51.980;5.918;2022-08-27T15:29:13;4.53;;;1.20;;
43519;SDS011;46848;51.980;5.918;2022-08-27T15:31:39;4.82;;;1.25;;
43519;SDS011;46848;51.980;5.918;2022-08-27T15:34:06;4.28;;;1.27;;
43519;SDS011;46848;51.980;5.918;2022-08-27T15:36:32;5.78;;;1.48;;
43519;SDS011;46848;51.980;5.918;2022-08-27T15:38:58;4.65;;;1.23;;
43519;SDS011;46848;51.980;5.918;2022-08-27T15:41:24;4.03;;;1.30;;
43519;SDS011;46848;51.980;5.918;2022-08-27T15:43:50;6.38;;;1.60;;
43519;SDS011;46848;51.980;5.918;2022-08-27T15:46:16;4.45;;;1.05;;
43519;SDS011;46848;51.980;5.918;2022-08-27T15:48:41;3.30;;;1.23;;
43519;SDS011;46848;51.980;5.918;2022-08-27T15:51:08;4.40;;;1.30;;
43519;SDS011;46848;51.980;5.918;2022-08-27T15:53:36;5.13;;;1.15;;
43519;SDS011;46848;51.980;5.918;2022-08-27T15:56:03;5.20;;;1.20;;
43519;SDS011;46848;51.980;5.918;2022-08-27T15:58:31;5.05;;;1.27;;
43519;SDS011;46848;51.980;5.918;2022-08-27T16:01:02;5.35;;;1.45;;
43519;SDS011;46848;51.980;5.918;2022-08-27T16:03:41;3.50;;;0.90;;
43519;SDS011;46848;51.980;5.918;2022-08-27T16:06:09;4.00;;;1.30;;
43519;SDS011;46848;51.980;5.918;2022-08-27T16:08:35;4.75;;;1.40;;
43519;SDS011;46848;51.980;5.918;2022-08-27T16:11:01;4.88;;;1.55;;
43519;SDS011;46848;51.980;5.918;2022-08-27T16:13:27;4.18;;;1.38;;
43519;SDS011;46848;51.980;5.918;2022-08-27T16:15:53;6.80;;;1.60;;
43519;SDS011;46848;51.980;5.918;2022-08-27T16:18:21;7.88;;;1.55;;
43519;SDS011;46848;51.980;5.918;2022-08-27T16:20:53;4.72;;;1.33;;
43519;SDS011;46848;51.980;5.918;2022-08-27T16:23:20;5.30;;;1.80;;
43519;SDS011;46848;51.980;5.918;2022-08-27T16:25:47;5.70;;;1.30;;
43519;SDS011;46848;51.980;5.918;2022-08-27T16:28:13;3.53;;;1.02;;
43519;SDS011;46848;51.980;5.918;2022-08-27T16:30:39;6.15;;;1.33;;
43519;SDS011;46848;51.980;5.918;2022-08-27T16:33:05;3.17;;;1.05;;
43519;SDS011;46848;51.980;5.918;2022-08-27T16:35:33;4.13;;;1.10;;
43519;SDS011;46848;51.980;5.918;2022-08-27T16:37:59;5.22;;;1.20;;
43519;SDS011;46848;51.980;5.918;2022-08-27T16:40:25;3.25;;;1.20;;
43519;SDS011;46848;51.980;5.918;2022-08-27T16:42:51;3.90;;;1.42;;
43519;SDS011;46848;51.980;5.918;2022-08-27T16:45:18;5.13;;;1.30;;
43519;SDS011;46848;51.980;5.918;2022-08-27T16:47:48;5.35;;;1.40;;